createdAt,value
2022-10-25T16:01:52.630Z,5.60
2022-10-25T16:03:24.879Z,6.60
2022-10-25T16:04:56.645Z,7.40
2022-10-25T16:06:28.368Z,5.20
2022-10-25T16:08:01.310Z,6.20
2022-10-25T16:09:33.065Z,6.40
2022-10-25T16:11:05.037Z,5.40
2022-10-25T16:12:36.853Z,8.00
2022-10-25T16:14:16.238Z,18.80
2022-10-25T16:15:47.955Z,13.00
2022-10-25T16:17:19.749Z,16.40
2022-10-25T16:18:53.835Z,20.00
2022-10-25T16:20:28.434Z,21.00
2022-10-25T16:22:00.275Z,21.00
2022-10-25T16:23:32.001Z,24.40
2022-10-25T16:25:03.822Z,27.40
2022-10-25T16:26:43.017Z,28.40
2022-10-25T16:28:15.309Z,28.20
2022-10-25T16:29:47.132Z,42.50
2022-10-25T16:31:18.870Z,39.00
2022-10-25T16:32:50.975Z,43.25
2022-10-25T16:34:22.702Z,45.50
2022-10-25T16:35:54.505Z,40.25
2022-10-25T16:37:26.188Z,41.25
2022-10-25T16:38:57.979Z,42.00
2022-10-25T16:40:30.026Z,45.50
2022-10-25T16:42:01.750Z,51.00
2022-10-25T16:43:33.447Z,58.00
2022-10-25T16:45:26.071Z,57.75
2022-10-25T16:46:58.426Z,61.25
2022-10-25T16:48:30.133Z,64.25
2022-10-25T16:50:01.791Z,68.00
2022-10-25T16:51:34.827Z,62.50
2022-10-25T16:53:07.710Z,69.00
2022-10-25T16:54:39.549Z,72.25
2022-10-25T16:56:11.830Z,68.40
2022-10-25T16:57:43.567Z,77.60
2022-10-25T16:59:15.510Z,81.00
2022-10-25T17:00:47.339Z,75.60
2022-10-25T17:02:22.706Z,76.00
2022-10-25T17:03:54.681Z,78.60
2022-10-25T17:05:28.754Z,75.80
2022-10-25T17:07:00.889Z,71.20
2022-10-25T17:08:32.616Z,80.40
2022-10-25T17:10:04.957Z,85.50
2022-10-25T17:11:36.679Z,142.67
2022-10-25T17:13:10.014Z,137.00
2022-10-25T17:14:41.769Z,108.00
2022-10-25T17:16:14.842Z,98.50
2022-10-25T17:17:46.974Z,91.50
2022-10-25T17:19:18.820Z,89.25
2022-10-25T17:20:50.536Z,84.67
2022-10-25T17:22:22.723Z,87.25
2022-10-25T17:23:55.100Z,81.00
2022-10-25T17:25:27.011Z,79.75
2022-10-25T17:26:59.242Z,76.60
2022-10-25T17:28:31.195Z,81.80
2022-10-25T17:30:02.992Z,83.00
2022-10-25T17:31:34.803Z,83.25
2022-10-25T17:33:06.508Z,89.75
2022-10-25T17:34:38.201Z,97.50
2022-10-25T17:36:12.380Z,87.25
2022-10-25T17:37:44.592Z,90.75
2022-10-25T17:39:17.189Z,82.00
2022-10-25T17:40:48.998Z,80.60
2022-10-25T17:42:20.912Z,80.75
2022-10-25T17:43:55.924Z,82.00
2022-10-25T17:45:29.850Z,85.50
2022-10-25T17:47:03.119Z,86.75
2022-10-25T17:48:35.160Z,87.25
2022-10-25T17:50:07.263Z,88.50
2022-10-25T17:51:39.074Z,89.25
2022-10-25T17:53:10.887Z,91.50
2022-10-25T17:54:43.177Z,90.75
2022-10-25T17:56:18.514Z,98.25
2022-10-25T17:57:51.184Z,104.75
2022-10-25T17:59:23.001Z,97.75
2022-10-25T18:00:55.555Z,95.25
2022-10-25T18:02:27.515Z,98.75
2022-10-25T18:03:59.367Z,97.25
2022-10-25T18:05:31.703Z,93.50
2022-10-25T18:07:03.440Z,99.25
2022-10-25T18:08:36.699Z,99.25
2022-10-25T18:10:08.786Z,106.00
2022-10-25T18:11:40.499Z,97.75
2022-10-25T18:13:12.693Z,103.25
2022-10-25T18:14:44.653Z,112.75
2022-10-25T18:16:17.518Z,105.25
2022-10-25T18:17:49.704Z,130.50
2022-10-25T18:19:21.569Z,118.25
2022-10-25T18:20:53.281Z,128.50
2022-10-25T18:22:25.351Z,150.67
2022-10-25T18:24:00.896Z,167.25
2022-10-25T18:25:32.789Z,178.25
2022-10-25T18:27:04.494Z,183.00
2022-10-25T18:28:36.256Z,169.25
2022-10-25T18:30:09.045Z,158.75
2022-10-25T18:31:40.799Z,140.00
2022-10-25T18:33:14.764Z,151.33
2022-10-25T18:34:46.531Z,140.33
2022-10-25T18:36:19.666Z,135.00
2022-10-25T18:37:51.635Z,125.67
2022-10-25T18:39:23.372Z,129.50
2022-10-25T18:40:55.186Z,122.00
2022-10-25T18:42:27.032Z,115.50
2022-10-25T18:43:58.900Z,108.25
2022-10-25T18:45:30.617Z,102.25
2022-10-25T18:47:02.334Z,99.25
2022-10-25T18:48:34.043Z,93.50
2022-10-25T18:50:06.403Z,84.00
2022-10-25T18:51:39.488Z,82.50
2022-10-25T18:53:11.231Z,79.25
2022-10-25T18:54:42.989Z,72.00
2022-10-25T18:56:17.104Z,76.20
2022-10-25T18:57:51.725Z,75.20
2022-10-25T18:59:23.676Z,64.25
2022-10-25T19:00:55.415Z,58.75
2022-10-25T19:02:27.303Z,61.00
2022-10-25T19:04:00.163Z,59.75
2022-10-25T19:05:33.686Z,56.00
2022-10-25T19:07:05.414Z,52.25
2022-10-25T19:08:37.401Z,49.25
2022-10-25T19:10:09.310Z,46.50
2022-10-25T19:11:41.055Z,37.50
2022-10-25T19:13:19.097Z,43.50
2022-10-25T19:14:50.869Z,43.25
2022-10-25T19:16:23.080Z,40.75
2022-10-25T19:17:54.770Z,40.00
2022-10-25T19:19:26.952Z,34.20
2022-10-25T19:21:09.406Z,33.00
2022-10-25T19:22:41.119Z,30.60
2022-10-25T19:24:15.872Z,31.20
2022-10-25T19:25:47.514Z,34.00
2022-10-25T19:27:19.248Z,34.60
2022-10-25T19:28:58.510Z,35.20
2022-10-25T19:30:34.220Z,36.25
2022-10-25T19:32:09.332Z,38.75
2022-10-25T19:33:47.951Z,40.00
2022-10-25T19:35:19.989Z,37.50
2022-10-25T19:36:52.236Z,38.75
2022-10-25T19:38:24.008Z,43.25
2022-10-25T19:39:58.240Z,46.50
2022-10-25T19:41:30.937Z,44.50
2022-10-25T19:43:02.708Z,45.75
2022-10-25T19:44:34.608Z,47.50
2022-10-25T19:46:06.943Z,43.75
2022-10-25T19:47:40.433Z,45.00
2022-10-25T19:49:12.244Z,51.00
2022-10-25T19:50:43.961Z,53.50
2022-10-25T19:52:15.698Z,64.75
2022-10-25T19:53:47.726Z,64.00
2022-10-25T19:55:19.455Z,66.50
2022-10-25T19:56:51.529Z,69.25
2022-10-25T19:58:23.237Z,68.75
2022-10-25T19:59:55.044Z,64.75
2022-10-25T20:01:27.456Z,66.50
2022-10-25T20:02:59.339Z,72.80
2022-10-25T20:04:31.173Z,71.60
2022-10-25T20:06:08.279Z,74.80
2022-10-25T20:07:39.987Z,72.00
2022-10-25T20:09:11.848Z,76.00
2022-10-25T20:10:43.565Z,74.20
2022-10-25T20:12:15.365Z,83.25
2022-10-25T20:13:47.140Z,90.75
2022-10-25T20:15:18.850Z,88.25
2022-10-25T20:16:50.665Z,87.75
2022-10-25T20:18:26.449Z,94.25
2022-10-25T20:19:58.230Z,86.00
2022-10-25T20:21:34.523Z,96.75
2022-10-25T20:23:06.217Z,98.50
2022-10-25T20:24:37.958Z,106.00
2022-10-25T20:26:13.930Z,91.75
2022-10-25T20:27:45.814Z,100.75
2022-10-25T20:29:21.266Z,107.25
2022-10-25T20:30:53.399Z,101.75
2022-10-25T20:32:25.030Z,101.00
2022-10-25T20:33:57.098Z,101.25
2022-10-25T20:35:28.772Z,106.25
2022-10-25T20:37:00.716Z,107.50
2022-10-25T20:38:32.413Z,107.25
2022-10-25T20:40:04.374Z,108.25
2022-10-25T20:41:36.183Z,102.50
2022-10-25T20:43:08.041Z,106.25
2022-10-25T20:44:39.819Z,102.50
2022-10-25T20:46:11.522Z,109.50
2022-10-25T20:47:43.513Z,115.50
2022-10-25T20:49:15.311Z,110.25
2022-10-25T20:50:49.711Z,114.50
2022-10-25T20:52:21.903Z,138.00
2022-10-25T20:53:53.785Z,113.25
2022-10-25T20:55:27.340Z,123.25
2022-10-25T20:56:59.082Z,105.25
2022-10-25T20:58:30.974Z,118.75
2022-10-25T21:00:03.952Z,117.50
2022-10-25T21:01:36.191Z,126.00
2022-10-25T21:03:07.958Z,116.50
2022-10-25T21:04:53.533Z,125.75
2022-10-25T21:06:25.857Z,120.75
2022-10-25T21:07:57.603Z,139.67
2022-10-25T21:09:29.365Z,127.00
2022-10-25T21:11:02.432Z,122.50
2022-10-25T21:12:34.698Z,123.75
2022-10-25T21:14:06.651Z,114.75
2022-10-25T21:15:39.021Z,124.00
2022-10-25T21:17:10.756Z,120.75
2022-10-25T21:18:42.676Z,127.75
2022-10-25T21:20:14.497Z,144.67
2022-10-25T21:21:46.129Z,124.75
2022-10-25T21:23:17.990Z,115.25
2022-10-25T21:24:49.670Z,112.25
2022-10-25T21:26:21.444Z,108.00
2022-10-25T21:27:56.315Z,83.50
2022-10-25T21:29:28.038Z,107.50
2022-10-25T21:31:09.957Z,100.50
2022-10-25T21:32:41.665Z,96.50
2022-10-25T21:34:13.442Z,103.75
2022-10-25T21:35:45.111Z,97.00
2022-10-25T21:37:17.052Z,92.25
2022-10-25T21:38:48.808Z,96.00
2022-10-25T21:40:20.869Z,101.00
2022-10-25T21:41:53.166Z,99.25
2022-10-25T21:43:25.660Z,86.50
2022-10-25T21:44:57.749Z,86.25
2022-10-25T21:46:29.562Z,89.25
2022-10-25T21:48:02.097Z,90.25
2022-10-25T21:49:34.069Z,90.75
2022-10-25T21:51:06.144Z,114.75
2022-10-25T21:52:37.992Z,104.00
2022-10-25T21:54:11.478Z,97.50
2022-10-25T21:55:43.752Z,97.75
2022-10-25T21:57:15.581Z,88.25
2022-10-25T21:58:49.917Z,78.00
2022-10-25T22:00:21.802Z,77.60
2022-10-25T22:01:53.820Z,78.40
2022-10-25T22:03:28.840Z,74.40
2022-10-25T22:05:00.788Z,75.60
2022-10-25T22:06:32.699Z,74.00
2022-10-25T22:08:04.889Z,87.00
2022-10-25T22:09:36.768Z,79.25
2022-10-25T22:11:25.610Z,92.00
2022-10-25T22:12:57.618Z,85.00
2022-10-25T22:14:29.802Z,83.50
2022-10-25T22:16:02.553Z,82.25
2022-10-25T22:17:34.283Z,77.25
2022-10-25T22:19:08.281Z,76.25
2022-10-25T22:20:40.003Z,83.50
2022-10-25T22:22:11.695Z,76.00
2022-10-25T22:23:43.455Z,70.80
2022-10-25T22:25:15.211Z,80.00
2022-10-25T22:26:46.939Z,80.50
2022-10-25T22:28:18.786Z,82.00
2022-10-25T22:29:50.739Z,93.25
2022-10-25T22:31:22.680Z,84.75
2022-10-25T22:32:54.410Z,88.50
2022-10-25T22:34:26.164Z,90.50
